sensor_id;sensor_type;location;lat;lon;timestamp;P1;durP1;ratioP1;P2;durP2;ratioP2
38162;SDS011;23977;53.078;18.248;2022-07-24T00:00:55;9.10;;;4.45;;
38162;SDS011;23977;53.078;18.248;2022-07-24T00:03:23;7.97;;;4.63;;
38162;SDS011;23977;53.078;18.248;2022-07-24T00:05:49;8.75;;;4.43;;
38162;SDS011;23977;53.078;18.248;2022-07-24T00:08:15;8.25;;;4.32;;
38162;SDS011;23977;53.078;18.248;2022-07-24T00:10:58;6.43;;;4.25;;
38162;SDS011;23977;53.078;18.248;2022-07-24T00:13:26;5.30;;;4.05;;
38162;SDS011;23977;53.078;18.248;2022-07-24T00:15:52;8.43;;;4.22;;
38162;SDS011;23977;53.078;18.248;2022-07-24T00:18:18;6.50;;;4.40;;
38162;SDS011;23977;53.078;18.248;2022-07-24T00:20:44;7.22;;;4.40;;
38162;SDS011;23977;53.078;18.248;2022-07-24T00:23:11;6.45;;;4.65;;
38162;SDS011;23977;53.078;18.248;2022-07-24T00:25:37;7.43;;;4.45;;
38162;SDS011;23977;53.078;18.248;2022-07-24T00:28:04;6.35;;;4.63;;
38162;SDS011;23977;53.078;18.248;2022-07-24T00:30:30;7.43;;;4.50;;
38162;SDS011;23977;53.078;18.248;2022-07-24T00:32:56;6.78;;;4.30;;
38162;SDS011;23977;53.078;18.248;2022-07-24T00:35:27;6.78;;;3.90;;
38162;SDS011;23977;53.078;18.248;2022-07-24T00:37:52;5.70;;;4.25;;
38162;SDS011;23977;53.078;18.248;2022-07-24T00:40:18;7.25;;;4.35;;
38162;SDS011;23977;53.078;18.248;2022-07-24T00:42:44;8.85;;;4.43;;
38162;SDS011;23977;53.078;18.248;2022-07-24T00:45:10;6.72;;;4.50;;
38162;SDS011;23977;53.078;18.248;2022-07-24T00:47:36;7.93;;;4.30;;
38162;SDS011;23977;53.078;18.248;2022-07-24T00:50:02;7.10;;;4.60;;
38162;SDS011;23977;53.078;18.248;2022-07-24T00:52:31;6.80;;;4.30;;
38162;SDS011;23977;53.078;18.248;2022-07-24T00:54:57;6.72;;;4.35;;
38162;SDS011;23977;53.078;18.248;2022-07-24T00:57:24;5.57;;;4.45;;
38162;SDS011;23977;53.078;18.248;2022-07-24T00:59:50;8.65;;;4.47;;
38162;SDS011;23977;53.078;18.248;2022-07-24T01:02:15;7.03;;;5.15;;
38162;SDS011;23977;53.078;18.248;2022-07-24T01:04:58;6.57;;;4.90;;
38162;SDS011;23977;53.078;18.248;2022-07-24T01:07:36;7.22;;;4.95;;
38162;SDS011;23977;53.078;18.248;2022-07-24T01:10:03;8.85;;;5.63;;
38162;SDS011;23977;53.078;18.248;2022-07-24T01:12:30;6.55;;;5.35;;
38162;SDS011;23977;53.078;18.248;2022-07-24T01:14:55;7.72;;;5.30;;
38162;SDS011;23977;53.078;18.248;2022-07-24T01:17:21;7.43;;;5.22;;
38162;SDS011;23977;53.078;18.248;2022-07-24T01:19:47;9.90;;;5.38;;
38162;SDS011;23977;53.078;18.248;2022-07-24T01:22:13;7.25;;;5.18;;
38162;SDS011;23977;53.078;18.248;2022-07-24T01:24:39;7.68;;;5.35;;
38162;SDS011;23977;53.078;18.248;2022-07-24T01:27:05;7.82;;;5.38;;
38162;SDS011;23977;53.078;18.248;2022-07-24T01:29:31;6.68;;;5.20;;
38162;SDS011;23977;53.078;18.248;2022-07-24T01:31:56;8.25;;;4.80;;
38162;SDS011;23977;53.078;18.248;2022-07-24T01:34:22;6.13;;;4.93;;
38162;SDS011;23977;53.078;18.248;2022-07-24T01:36:48;8.07;;;5.35;;
38162;SDS011;23977;53.078;18.248;2022-07-24T01:39:13;6.57;;;4.82;;
38162;SDS011;23977;53.078;18.248;2022-07-24T01:41:41;7.00;;;4.80;;
38162;SDS011;23977;53.078;18.248;2022-07-24T01:44:07;6.88;;;4.65;;
38162;SDS011;23977;53.078;18.248;2022-07-24T01:46:32;6.30;;;4.40;;
38162;SDS011;23977;53.078;18.248;2022-07-24T01:48:58;8.15;;;4.80;;
38162;SDS011;23977;53.078;18.248;2022-07-24T01:51:24;6.30;;;4.68;;
38162;SDS011;23977;53.078;18.248;2022-07-24T01:53:49;7.40;;;4.78;;
38162;SDS011;23977;53.078;18.248;2022-07-24T01:56:18;6.85;;;4.60;;
38162;SDS011;23977;53.078;18.248;2022-07-24T01:58:45;5.80;;;4.35;;
38162;SDS011;23977;53.078;18.248;2022-07-24T02:01:11;5.90;;;4.40;;
38162;SDS011;23977;53.078;18.248;2022-07-24T02:03:39;8.30;;;5.00;;
38162;SDS011;23977;53.078;18.248;2022-07-24T02:06:05;6.18;;;4.07;;
38162;SDS011;23977;53.078;18.248;2022-07-24T02:08:31;6.15;;;3.75;;
38162;SDS011;23977;53.078;18.248;2022-07-24T02:10:57;6.20;;;4.32;;
38162;SDS011;23977;53.078;18.248;2022-07-24T02:13:23;7.70;;;4.47;;
38162;SDS011;23977;53.078;18.248;2022-07-24T02:15:51;6.88;;;4.43;;
38162;SDS011;23977;53.078;18.248;2022-07-24T02:18:17;7.32;;;4.20;;
38162;SDS011;23977;53.078;18.248;2022-07-24T02:20:42;6.53;;;4.22;;
38162;SDS011;23977;53.078;18.248;2022-07-24T02:23:08;6.85;;;4.45;;
38162;SDS011;23977;53.078;18.248;2022-07-24T02:25:35;7.80;;;4.30;;
38162;SDS011;23977;53.078;18.248;2022-07-24T02:28:00;7.28;;;4.25;;
38162;SDS011;23977;53.078;18.248;2022-07-24T02:30:26;6.70;;;4.30;;
38162;SDS011;23977;53.078;18.248;2022-07-24T02:32:52;5.50;;;4.15;;
38162;SDS011;23977;53.078;18.248;2022-07-24T02:35:18;6.20;;;4.35;;
38162;SDS011;23977;53.078;18.248;2022-07-24T02:37:44;6.43;;;3.90;;
38162;SDS011;23977;53.078;18.248;2022-07-24T02:40:10;8.57;;;4.65;;
38162;SDS011;23977;53.078;18.248;2022-07-24T02:42:37;6.38;;;4.40;;
38162;SDS011;23977;53.078;18.248;2022-07-24T02:45:03;6.82;;;4.53;;
38162;SDS011;23977;53.078;18.248;2022-07-24T02:47:29;6.15;;;4.30;;
38162;SDS011;23977;53.078;18.248;2022-07-24T02:49:54;6.75;;;4.78;;
38162;SDS011;23977;53.078;18.248;2022-07-24T02:52:20;7.45;;;4.28;;
38162;SDS011;23977;53.078;18.248;2022-07-24T02:54:46;6.03;;;4.60;;
38162;SDS011;23977;53.078;18.248;2022-07-24T02:57:11;8.85;;;4.70;;
38162;SDS011;23977;53.078;18.248;2022-07-24T02:59:37;6.60;;;4.60;;
38162;SDS011;23977;53.078;18.248;2022-07-24T03:02:02;9.27;;;4.90;;
38162;SDS011;23977;53.078;18.248;2022-07-24T03:04:28;6.68;;;4.57;;
38162;SDS011;23977;53.078;18.248;2022-07-24T03:06:53;9.77;;;4.97;;
38162;SDS011;23977;53.078;18.248;2022-07-24T03:09:19;8.82;;;5.32;;
38162;SDS011;23977;53.078;18.248;2022-07-24T03:11:45;7.63;;;4.85;;
38162;SDS011;23977;53.078;18.248;2022-07-24T03:14:11;9.10;;;5.28;;
38162;SDS011;23977;53.078;18.248;2022-07-24T03:16:37;7.25;;;4.38;;
38162;SDS011;23977;53.078;18.248;2022-07-24T03:19:04;5.95;;;3.90;;
38162;SDS011;23977;53.078;18.248;2022-07-24T03:21:43;6.28;;;3.58;;
38162;SDS011;23977;53.078;18.248;2022-07-24T22:14:33;10.55;;;6.47;;
38162;SDS011;23977;53.078;18.248;2022-07-24T22:17:14;6.90;;;5.57;;
38162;SDS011;23977;53.078;18.248;2022-07-24T22:19:55;9.48;;;6.20;;
38162;SDS011;23977;53.078;18.248;2022-07-24T22:22:25;12.75;;;6.97;;
38162;SDS011;23977;53.078;18.248;2022-07-24T22:24:53;12.00;;;7.00;;
38162;SDS011;23977;53.078;18.248;2022-07-24T22:27:22;9.35;;;6.97;;
38162;SDS011;23977;53.078;18.248;2022-07-24T22:30:12;10.52;;;6.90;;
38162;SDS011;23977;53.078;18.248;2022-07-24T22:32:42;10.15;;;7.07;;
38162;SDS011;23977;53.078;18.248;2022-07-24T22:35:08;10.40;;;6.78;;
38162;SDS011;23977;53.078;18.248;2022-07-24T22:37:35;10.27;;;6.63;;
38162;SDS011;23977;53.078;18.248;2022-07-24T22:40:17;9.07;;;6.10;;
38162;SDS011;23977;53.078;18.248;2022-07-24T22:42:44;8.60;;;5.80;;
38162;SDS011;23977;53.078;18.248;2022-07-24T22:45:11;7.78;;;5.32;;
38162;SDS011;23977;53.078;18.248;2022-07-24T22:47:39;7.95;;;5.45;;
38162;SDS011;23977;53.078;18.248;2022-07-24T22:50:08;8.95;;;5.47;;
38162;SDS011;23977;53.078;18.248;2022-07-24T22:52:37;8.48;;;5.60;;
38162;SDS011;23977;53.078;18.248;2022-07-24T22:55:04;8.57;;;5.90;;
38162;SDS011;23977;53.078;18.248;2022-07-24T22:57:46;8.75;;;6.22;;
38162;SDS011;23977;53.078;18.248;2022-07-24T23:00:15;8.73;;;6.15;;
38162;SDS011;23977;53.078;18.248;2022-07-24T23:02:45;9.25;;;6.80;;
38162;SDS011;23977;53.078;18.248;2022-07-24T23:05:11;11.40;;;7.60;;
38162;SDS011;23977;53.078;18.248;2022-07-24T23:07:52;12.25;;;7.05;;
38162;SDS011;23977;53.078;18.248;2022-07-24T23:10:20;10.40;;;6.85;;
38162;SDS011;23977;53.078;18.248;2022-07-24T23:12:46;10.25;;;6.72;;
38162;SDS011;23977;53.078;18.248;2022-07-24T23:15:13;10.30;;;6.60;;
38162;SDS011;23977;53.078;18.248;2022-07-24T23:17:41;11.30;;;6.85;;
38162;SDS011;23977;53.078;18.248;2022-07-24T23:20:08;13.27;;;7.00;;
38162;SDS011;23977;53.078;18.248;2022-07-24T23:22:34;12.70;;;7.97;;
38162;SDS011;23977;53.078;18.248;2022-07-24T23:25:03;13.27;;;7.70;;
38162;SDS011;23977;53.078;18.248;2022-07-24T23:27:29;10.55;;;7.00;;
38162;SDS011;23977;53.078;18.248;2022-07-24T23:29:55;12.77;;;7.20;;
38162;SDS011;23977;53.078;18.248;2022-07-24T23:32:23;13.48;;;7.93;;
38162;SDS011;23977;53.078;18.248;2022-07-24T23:34:50;12.32;;;7.70;;
38162;SDS011;23977;53.078;18.248;2022-07-24T23:37:17;15.15;;;8.35;;
38162;SDS011;23977;53.078;18.248;2022-07-24T23:39:57;11.52;;;7.72;;
38162;SDS011;23977;53.078;18.248;2022-07-24T23:42:27;15.07;;;8.32;;
38162;SDS011;23977;53.078;18.248;2022-07-24T23:44:53;12.95;;;7.88;;
38162;SDS011;23977;53.078;18.248;2022-07-24T23:47:20;13.07;;;7.57;;
38162;SDS011;23977;53.078;18.248;2022-07-24T23:49:47;13.05;;;7.50;;
38162;SDS011;23977;53.078;18.248;2022-07-24T23:52:12;13.55;;;6.95;;
38162;SDS011;23977;53.078;18.248;2022-07-24T23:54:40;9.23;;;6.30;;
38162;SDS011;23977;53.078;18.248;2022-07-24T23:57:20;11.90;;;7.50;;
38162;SDS011;23977;53.078;18.248;2022-07-24T23:59:47;15.77;;;7.90;;
